Time;durP1;ratioP1;P1;durP2;ratioP2;P2;SDS_P1;SDS_P2;PMS_P1;PMS_P2;Temp;Humidity;BMP_temperature;BMP_pressure;BME280_temperature;BME280_humidity;BME280_pressure;Samples;Min_cycle;Max_cycle;Signal;HPM_P1;HPM_P2
2023/04/13 00:00:41;;;;;;;9.82;3.30;;;5.80;99.90;;;;;;5067367;28;20048;-77
2023/04/13 00:03:10;;;;;;;9.60;3.17;;;6.00;99.90;;;;;;5036648;28;20036;-77
2023/04/13 00:05:37;;;;;;;9.15;3.20;;;5.80;99.90;;;;;;5037697;28;20379;-78
2023/04/13 00:08:04;;;;;;;10.75;3.53;;;5.80;99.90;;;;;;5068359;28;20040;-78
2023/04/13 00:10:35;;;;;;;10.60;3.50;;;5.80;99.90;;;;;;5047797;28;20053;-78
2023/04/13 00:13:05;;;;;;;10.10;3.63;;;5.80;99.90;;;;;;5034095;28;20171;-78
2023/04/13 00:15:33;;;;;;;8.52;3.38;;;5.90;99.90;;;;;;5045774;28;20041;-78
2023/04/13 00:17:59;;;;;;;9.77;3.38;;;5.70;99.90;;;;;;5059352;28;20033;-78
2023/04/13 00:20:25;;;;;;;8.93;3.40;;;5.80;99.90;;;;;;5062449;28;20041;-77
2023/04/13 00:22:51;;;;;;;8.75;3.40;;;5.80;99.90;;;;;;5064112;28;20036;-77
2023/04/13 00:25:17;;;;;;;8.85;3.58;;;5.80;99.90;;;;;;5065348;28;20094;-77
2023/04/13 00:27:43;;;;;;;9.07;3.60;;;6.20;99.90;;;;;;5048616;28;20041;-76
2023/04/13 00:30:12;;;;;;;9.85;3.95;;;5.90;99.90;;;;;;5042142;28;20064;-76
2023/04/13 00:32:41;;;;;;;9.23;3.58;;;5.90;99.90;;;;;;5067374;28;20391;-75
2023/04/13 00:35:08;;;;;;;8.77;3.65;;;6.00;99.90;;;;;;5063856;28;20094;-76
2023/04/13 00:37:34;;;;;;;10.43;3.42;;;6.00;99.90;;;;;;5047691;28;20044;-77
2023/04/13 00:39:59;;;;;;;8.20;3.30;;;6.40;99.90;;;;;;5065994;28;20532;-77
2023/04/13 00:42:25;;;;;;;9.05;3.55;;;6.10;99.90;;;;;;5066673;28;20037;-77
2023/04/13 00:44:54;;;;;;;10.57;3.35;;;6.20;99.90;;;;;;5068354;28;20055;-77
2023/04/13 00:47:25;;;;;;;9.25;3.22;;;6.10;99.90;;;;;;5051098;28;20036;-76
2023/04/13 00:49:52;;;;;;;8.95;3.38;;;6.10;99.90;;;;;;5050384;28;20120;-77
2023/04/13 00:52:20;;;;;;;8.35;3.13;;;6.20;99.90;;;;;;5046399;28;20119;-77
2023/04/13 00:54:50;;;;;;;8.75;3.25;;;6.20;99.90;;;;;;5062210;28;20320;-77
2023/04/13 00:57:19;;;;;;;8.75;3.40;;;6.20;99.90;;;;;;5050295;28;20090;-77
2023/04/13 00:59:48;;;;;;;9.52;3.35;;;6.20;99.90;;;;;;5051527;28;20047;-77
2023/04/13 01:02:15;;;;;;;8.32;3.22;;;6.20;99.90;;;;;;5058705;28;20053;-77
2023/04/13 01:04:41;;;;;;;9.35;3.40;;;6.20;99.90;;;;;;5065179;28;20240;-77
2023/04/13 01:07:18;;;;;;;9.82;3.50;;;6.30;99.90;;;;;;5044264;28;20047;-77
2023/04/13 01:09:55;;;;;;;9.35;3.75;;;6.50;99.90;;;;;;5045080;28;20422;-77
2023/04/13 01:12:32;;;;;;;8.50;3.53;;;6.40;99.90;;;;;;5047759;28;20324;-77
2023/04/13 01:15:07;;;;;;;9.30;3.78;;;6.40;99.90;;;;;;5049299;28;20410;-77
2023/04/13 01:17:38;;;;;;;8.88;3.65;;;6.40;99.90;;;;;;5032232;28;20047;-77
2023/04/13 01:20:15;;;;;;;8.75;3.92;;;6.40;99.90;;;;;;5052626;28;20115;-78
2023/04/13 01:22:56;;;;;;;8.65;3.67;;;6.40;99.90;;;;;;5072083;28;20421;-77
2023/04/13 01:25:50;;;;;;;9.35;3.90;;;6.40;99.90;;;;;;5066269;28;20447;-77
2023/04/13 01:28:20;;;;;;;9.00;3.38;;;6.40;99.90;;;;;;5065028;28;20093;-77
2023/04/13 01:30:48;;;;;;;9.00;3.45;;;6.50;99.90;;;;;;5043265;28;20033;-77
2023/04/13 01:33:15;;;;;;;10.80;3.65;;;6.40;99.90;;;;;;5068352;28;20571;-77
2023/04/13 01:35:42;;;;;;;8.85;3.47;;;6.40;99.90;;;;;;5033876;28;20041;-78
2023/04/13 01:38:09;;;;;;;9.40;3.65;;;6.40;99.90;;;;;;5032313;28;20049;-78
2023/04/13 01:40:39;;;;;;;10.15;4.40;;;6.40;99.90;;;;;;5025642;28;20130;-77
2023/04/13 01:43:06;;;;;;;8.23;3.50;;;6.40;99.90;;;;;;5062714;28;20055;-78
2023/04/13 01:45:49;;;;;;;8.45;3.60;;;6.40;99.90;;;;;;5065927;28;20040;-77
2023/04/13 01:48:18;;;;;;;8.10;3.28;;;6.30;99.90;;;;;;5067540;28;20036;-77
2023/04/13 01:50:49;;;;;;;7.82;3.10;;;6.40;99.90;;;;;;5061870;28;20040;-77
2023/04/13 01:53:18;;;;;;;8.82;3.00;;;6.30;99.90;;;;;;5037559;28;20036;-77
2023/04/13 01:55:45;;;;;;;8.15;2.90;;;6.40;99.90;;;;;;5044470;28;20043;-77
2023/04/13 01:58:13;;;;;;;7.80;2.88;;;6.30;99.90;;;;;;5048510;28;20159;-77
2023/04/13 02:00:40;;;;;;;7.88;2.67;;;6.30;99.90;;;;;;5057866;28;20376;-77
2023/04/13 02:03:08;;;;;;;9.40;3.10;;;6.30;99.90;;;;;;5079413;28;20438;-77
2023/04/13 02:05:38;;;;;;;7.53;2.80;;;6.20;99.90;;;;;;5066150;28;20072;-77
2023/04/13 02:08:06;;;;;;;8.05;2.55;;;6.40;99.90;;;;;;5031811;28;20075;-77
2023/04/13 02:10:34;;;;;;;12.20;3.20;;;6.20;99.90;;;;;;5046697;28;20055;-77
2023/04/13 02:13:03;;;;;;;7.95;2.72;;;6.40;99.90;;;;;;5068478;28;20044;-78
2023/04/13 02:15:30;;;;;;;7.47;2.80;;;6.20;99.90;;;;;;5048804;28;20041;-78
2023/04/13 02:17:55;;;;;;;9.10;2.72;;;6.20;99.90;;;;;;5061102;28;20040;-77
2023/04/13 02:20:21;;;;;;;8.20;2.55;;;6.20;99.90;;;;;;5049521;28;20323;-78
2023/04/13 02:22:47;;;;;;;8.13;2.72;;;6.40;99.90;;;;;;5060464;28;20043;-78
2023/04/13 02:25:17;;;;;;;5.90;2.30;;;6.20;99.90;;;;;;5061709;28;20052;-77
2023/04/13 02:27:44;;;;;;;8.25;2.50;;;6.20;99.90;;;;;;5066633;28;20048;-77
2023/04/13 02:30:10;;;;;;;8.90;2.30;;;6.20;99.90;;;;;;5044806;28;20044;-77
2023/04/13 02:32:40;;;;;;;7.25;2.15;;;6.20;99.90;;;;;;5053979;28;20446;-77
2023/04/13 02:35:10;;;;;;;6.88;2.30;;;6.20;99.90;;;;;;5059897;28;20037;-77
2023/04/13 02:37:39;;;;;;;7.38;2.30;;;6.20;99.90;;;;;;5062821;28;20056;-77
2023/04/13 02:40:11;;;;;;;8.75;2.80;;;6.20;99.90;;;;;;5057440;28;20102;-77
2023/04/13 02:42:41;;;;;;;8.07;2.50;;;6.20;99.90;;;;;;5065551;28;20049;-77
2023/04/13 02:45:16;;;;;;;7.38;2.40;;;6.20;99.90;;;;;;5064382;28;20052;-77
2023/04/13 02:47:43;;;;;;;7.38;2.22;;;6.20;99.90;;;;;;5044418;28;20107;-78
2023/04/13 02:50:10;;;;;;;6.65;2.20;;;6.20;99.90;;;;;;5048886;28;20111;-77
2023/04/13 02:52:36;;;;;;;8.35;2.42;;;6.20;99.90;;;;;;5026885;28;20042;-77
2023/04/13 02:55:03;;;;;;;7.50;2.40;;;6.20;99.90;;;;;;5063483;28;20040;-77
2023/04/13 02:57:30;;;;;;;7.53;2.30;;;6.20;99.90;;;;;;5052785;28;20048;-77
2023/04/13 02:59:56;;;;;;;6.63;2.22;;;6.20;99.90;;;;;;5046518;28;20048;-76
2023/04/13 03:02:25;;;;;;;8.52;2.50;;;6.20;99.90;;;;;;5050960;28;20409;-77
2023/04/13 03:04:51;;;;;;;6.78;2.25;;;6.20;99.90;;;;;;5048350;28;20087;-77
2023/04/13 03:07:17;;;;;;;7.13;2.15;;;6.40;99.90;;;;;;5048158;28;20063;-77
2023/04/13 03:09:43;;;;;;;7.03;1.90;;;6.20;99.90;;;;;;5055875;28;20514;-76
2023/04/13 03:12:09;;;;;;;7.65;2.17;;;6.20;99.90;;;;;;5038919;28;20078;-77
2023/04/13 03:14:36;;;;;;;6.35;2.20;;;6.30;99.90;;;;;;5048929;28;20097;-77
2023/04/13 03:17:03;;;;;;;7.18;2.13;;;6.20;99.90;;;;;;5050186;28;20079;-77
2023/04/13 03:19:29;;;;;;;6.28;2.00;;;6.30;99.90;;;;;;5066354;28;20044;-77
2023/04/13 03:21:55;;;;;;;7.40;2.42;;;6.30;99.90;;;;;;5060816;28;20521;-77
2023/04/13 03:24:22;;;;;;;5.88;2.03;;;6.30;99.90;;;;;;5050348;28;20041;-77
2023/04/13 03:26:48;;;;;;;7.05;2.10;;;6.30;99.90;;;;;;5066377;28;20044;-77
2023/04/13 03:29:13;;;;;;;7.88;2.35;;;6.30;99.90;;;;;;5050525;28;20414;-77
2023/04/13 03:31:40;;;;;;;6.78;2.17;;;6.30;99.90;;;;;;5066715;28;20040;-77
2023/04/13 03:34:05;;;;;;;7.05;2.20;;;6.30;99.90;;;;;;5054118;28;20036;-77
2023/04/13 03:36:31;;;;;;;6.95;2.30;;;6.60;99.90;;;;;;5052855;28;20048;-77
2023/04/13 03:38:57;;;;;;;7.65;2.30;;;6.30;99.90;;;;;;5054012;28;20064;-77
2023/04/13 03:41:23;;;;;;;9.38;2.30;;;6.50;99.90;;;;;;5048803;28;20037;-77
2023/04/13 03:43:49;;;;;;;6.15;2.20;;;6.30;99.90;;;;;;5053640;28;20102;-77
2023/04/13 03:46:15;;;;;;;11.23;2.33;;;6.30;99.90;;;;;;5018342;28;20079;-77
2023/04/13 03:48:42;;;;;;;7.10;2.45;;;6.30;99.90;;;;;;5068111;28;20072;-77
2023/04/13 03:51:07;;;;;;;6.25;2.05;;;6.40;99.90;;;;;;5068466;28;20036;-77
2023/04/13 03:53:37;;;;;;;5.63;2.10;;;6.40;99.90;;;;;;5052011;28;20094;-77
2023/04/13 03:56:03;;;;;;;5.05;1.80;;;6.40;99.90;;;;;;5064422;28;20037;-77
2023/04/13 03:58:29;;;;;;;6.05;1.90;;;6.40;99.90;;;;;;5061767;28;20044;-77
2023/04/13 04:00:55;;;;;;;7.78;2.10;;;6.40;99.90;;;;;;5062280;28;20405;-77
2023/04/13 04:03:23;;;;;;;5.93;1.90;;;6.40;99.90;;;;;;5054978;28;20540;-77
2023/04/13 04:05:48;;;;;;;6.05;2.28;;;6.50;99.90;;;;;;5069427;28;20048;-77
2023/04/13 04:08:14;;;;;;;7.22;2.17;;;6.80;99.90;;;;;;5050889;28;20374;-77
2023/04/13 04:10:40;;;;;;;6.38;2.10;;;6.50;99.90;;;;;;5044727;28;20064;-77
2023/04/13 04:13:06;;;;;;;7.10;2.22;;;6.60;99.90;;;;;;5045950;28;20041;-78
2023/04/13 04:15:31;;;;;;;6.25;2.10;;;6.60;99.90;;;;;;5068695;28;20047;-78
2023/04/13 04:17:58;;;;;;;7.13;2.20;;;6.60;99.90;;;;;;5068795;28;20131;-78
2023/04/13 04:20:23;;;;;;;6.03;2.13;;;6.60;99.90;;;;;;5056462;28;20388;-78
2023/04/13 04:22:51;;;;;;;7.45;2.28;;;6.60;99.90;;;;;;5038901;28;20086;-78
2023/04/13 04:25:20;;;;;;;8.50;2.25;;;6.60;99.90;;;;;;5047728;28;20458;-78
2023/04/13 04:27:56;;;;;;;7.68;2.45;;;6.60;99.90;;;;;;5046713;28;20037;-78
2023/04/13 04:30:23;;;;;;;8.30;2.20;;;6.60;99.90;;;;;;5048026;28;21362;-78
2023/04/13 04:32:53;;;;;;;6.15;2.30;;;6.60;99.90;;;;;;5064336;28;20127;-78
2023/04/13 04:35:31;;;;;;;7.35;2.35;;;6.60;99.90;;;;;;5067228;28;20316;-79
2023/04/13 04:37:59;;;;;;;6.57;2.20;;;6.60;99.90;;;;;;5068433;28;20094;-78
2023/04/13 04:40:25;;;;;;;6.85;2.10;;;6.90;99.90;;;;;;5041662;28;20572;-78
2023/04/13 04:42:50;;;;;;;6.28;2.25;;;6.70;99.90;;;;;;5067590;28;20041;-78
2023/04/13 04:45:16;;;;;;;6.63;2.53;;;6.60;99.90;;;;;;5049125;28;20566;-78
2023/04/13 04:47:42;;;;;;;6.55;2.30;;;6.60;99.90;;;;;;5065419;28;20044;-78
2023/04/13 04:50:13;;;;;;;6.43;2.20;;;6.50;99.90;;;;;;5062769;28;20067;-78
2023/04/13 04:52:40;;;;;;;7.20;2.47;;;6.50;99.90;;;;;;5042930;28;20071;-77
2023/04/13 04:55:06;;;;;;;7.43;2.40;;;6.60;99.90;;;;;;5066829;28;20048;-77
2023/04/13 04:57:33;;;;;;;7.32;2.40;;;6.50;99.90;;;;;;5052013;28;20044;-77
2023/04/13 05:00:00;;;;;;;7.68;2.50;;;6.40;99.90;;;;;;5058410;28;20045;-77
2023/04/13 05:02:26;;;;;;;7.22;2.60;;;6.50;99.90;;;;;;5038103;28;20048;-77
2023/04/13 05:04:52;;;;;;;8.15;2.78;;;6.40;99.90;;;;;;5016463;28;20379;-77
2023/04/13 05:07:18;;;;;;;8.30;2.60;;;6.40;99.90;;;;;;5063958;28;20048;-77
2023/04/13 05:09:44;;;;;;;6.25;2.50;;;6.40;99.90;;;;;;5036604;28;20079;-77
2023/04/13 05:12:10;;;;;;;8.07;2.50;;;6.40;99.90;;;;;;5067615;28;20045;-77
2023/04/13 05:14:37;;;;;;;7.43;2.58;;;6.70;99.90;;;;;;5061332;28;20078;-77
2023/04/13 05:17:02;;;;;;;6.75;2.63;;;6.40;99.90;;;;;;5044512;28;20532;-77
2023/04/13 05:19:28;;;;;;;8.68;3.00;;;6.50;99.90;;;;;;5062218;28;20056;-75
2023/04/13 05:21:54;;;;;;;8.55;3.30;;;6.50;99.90;;;;;;5050794;28;20048;-77
2023/04/13 05:24:20;;;;;;;7.85;2.90;;;6.50;99.90;;;;;;5061071;28;20470;-76
2023/04/13 05:26:46;;;;;;;8.52;3.30;;;6.50;99.90;;;;;;5058741;28;20052;-76
2023/04/13 05:29:11;;;;;;;7.40;3.35;;;6.50;99.90;;;;;;5064997;28;20041;-76
2023/04/13 05:31:37;;;;;;;9.10;3.45;;;6.50;99.90;;;;;;5032951;28;20039;-76
2023/04/13 05:34:03;;;;;;;10.35;3.75;;;6.50;99.90;;;;;;5058952;28;20691;-76
2023/04/13 05:36:30;;;;;;;8.85;4.30;;;6.60;99.90;;;;;;5048116;28;20498;-77
2023/04/13 05:39:00;;;;;;;9.20;3.95;;;6.70;99.90;;;;;;5061589;28;20498;-76
2023/04/13 05:41:26;;;;;;;10.35;4.00;;;6.80;99.90;;;;;;5065814;28;20049;-76
2023/04/13 05:43:52;;;;;;;10.55;3.92;;;6.80;99.90;;;;;;5050144;28;20063;-76
2023/04/13 05:46:17;;;;;;;9.80;4.25;;;6.80;99.90;;;;;;5069400;28;20111;-76
2023/04/13 05:48:43;;;;;;;9.60;3.88;;;6.80;99.90;;;;;;5077679;28;20187;-76
2023/04/13 05:51:12;;;;;;;8.45;3.65;;;6.80;99.90;;;;;;5058906;28;20329;-76
2023/04/13 05:53:38;;;;;;;10.18;4.10;;;6.90;99.90;;;;;;5057123;28;20036;-76
2023/04/13 05:56:05;;;;;;;9.95;4.13;;;6.90;99.90;;;;;;5047465;28;20033;-76
2023/04/13 05:58:30;;;;;;;8.93;3.97;;;6.90;99.90;;;;;;5041834;28;20051;-76
2023/04/13 06:00:56;;;;;;;9.55;3.70;;;7.00;99.90;;;;;;5035601;28;20032;-76
2023/04/13 06:03:22;;;;;;;9.00;3.80;;;7.00;99.90;;;;;;5026588;28;20058;-76
2023/04/13 06:05:48;;;;;;;8.75;3.35;;;7.00;99.90;;;;;;5046537;28;20059;-76
2023/04/13 06:08:13;;;;;;;9.95;3.60;;;7.00;99.90;;;;;;5043495;28;20043;-76
2023/04/13 06:10:40;;;;;;;11.32;4.28;;;7.00;99.90;;;;;;5045450;28;20033;-76
2023/04/13 06:13:07;;;;;;;9.35;3.72;;;7.30;99.90;;;;;;5044652;28;20497;-77
2023/04/13 06:15:35;;;;;;;8.27;3.70;;;7.20;99.90;;;;;;5010365;28;20041;-76
2023/04/13 06:18:01;;;;;;;7.90;3.55;;;7.40;99.90;;;;;;5061678;28;20055;-76
2023/04/13 06:20:27;;;;;;;9.35;3.60;;;7.50;99.90;;;;;;5046958;28;20036;-76
2023/04/13 06:22:53;;;;;;;9.45;3.53;;;7.60;99.90;;;;;;5040948;28;20051;-76
2023/04/13 06:25:18;;;;;;;8.73;3.28;;;7.70;99.90;;;;;;5039709;28;20394;-76
2023/04/13 06:27:46;;;;;;;8.15;3.45;;;7.70;99.90;;;;;;5061506;28;20064;-76
2023/04/13 06:30:12;;;;;;;12.25;3.60;;;7.80;99.90;;;;;;5044601;28;20628;-76
2023/04/13 06:32:37;;;;;;;8.32;3.20;;;7.70;99.90;;;;;;5045759;28;20040;-76
2023/04/13 06:35:04;;;;;;;10.40;3.42;;;7.70;99.90;;;;;;5060041;28;20551;-76
2023/04/13 06:37:31;;;;;;;9.77;3.15;;;7.70;99.90;;;;;;5061137;28;20067;-76
2023/04/13 06:39:56;;;;;;;9.80;3.67;;;7.60;99.90;;;;;;5060911;28;20041;-77
2023/04/13 06:42:22;;;;;;;9.15;3.33;;;7.60;99.90;;;;;;5045628;28;20044;-76
2023/04/13 06:44:48;;;;;;;10.70;3.53;;;7.70;99.90;;;;;;5045746;28;20486;-76
2023/04/13 06:47:15;;;;;;;8.88;3.20;;;7.70;99.90;;;;;;5060233;28;20063;-76
2023/04/13 06:49:41;;;;;;;10.15;3.13;;;7.70;99.90;;;;;;5061149;28;20048;-76
2023/04/13 06:52:07;;;;;;;10.05;3.20;;;7.70;99.90;;;;;;5042579;28;20040;-76
2023/04/13 06:54:34;;;;;;;9.90;3.50;;;7.70;99.90;;;;;;5044741;28;20309;-76
2023/04/13 06:57:00;;;;;;;10.98;3.22;;;7.70;99.90;;;;;;5042872;28;20048;-76
2023/04/13 06:59:27;;;;;;;10.63;3.40;;;7.70;99.90;;;;;;5033829;28;20140;-76
2023/04/13 07:01:52;;;;;;;9.70;3.45;;;7.70;99.90;;;;;;5049157;28;20079;-76
2023/04/13 07:04:18;;;;;;;8.65;3.13;;;7.60;99.90;;;;;;5067022;28;20076;-76
2023/04/13 07:06:45;;;;;;;9.88;3.10;;;7.60;99.90;;;;;;5054623;28;20032;-76
2023/04/13 07:09:11;;;;;;;10.23;3.20;;;7.60;99.90;;;;;;5071113;28;20075;-76
2023/04/13 07:11:36;;;;;;;10.27;3.50;;;7.60;99.90;;;;;;5063731;28;20468;-77
2023/04/13 07:14:02;;;;;;;9.63;3.58;;;7.60;99.90;;;;;;5062850;28;20028;-77
2023/04/13 07:16:28;;;;;;;9.93;3.60;;;7.70;99.90;;;;;;5032852;28;20036;-75
2023/04/13 07:18:54;;;;;;;12.57;3.60;;;7.80;99.90;;;;;;5046248;28;20485;-76
2023/04/13 07:21:20;;;;;;;12.18;4.30;;;7.80;99.90;;;;;;5047229;28;20040;-76
2023/04/13 07:23:46;;;;;;;9.63;3.70;;;7.90;99.90;;;;;;5047493;28;20041;-76
2023/04/13 07:26:16;;;;;;;12.27;3.88;;;7.70;99.90;;;;;;5063385;28;20047;-75
2023/04/13 07:28:42;;;;;;;11.05;3.40;;;7.80;99.90;;;;;;5050958;28;20094;-76
2023/04/13 07:31:07;;;;;;;12.07;3.85;;;7.70;99.90;;;;;;5069045;28;20048;-76
2023/04/13 07:33:33;;;;;;;11.05;3.42;;;7.70;99.90;;;;;;5047118;28;20112;-76
2023/04/13 07:35:59;;;;;;;11.55;3.65;;;7.70;99.90;;;;;;5064496;28;20047;-76
2023/04/13 07:38:25;;;;;;;10.77;3.63;;;7.60;99.90;;;;;;5047761;28;20082;-75
2023/04/13 07:40:51;;;;;;;8.10;3.42;;;7.60;99.90;;;;;;5046985;28;20048;-76
2023/04/13 07:43:16;;;;;;;11.93;3.83;;;7.60;99.90;;;;;;5048229;28;20535;-75
2023/04/13 07:45:42;;;;;;;11.68;3.97;;;7.60;99.90;;;;;;5048425;28;20040;-75
2023/04/13 07:48:08;;;;;;;10.45;3.55;;;7.70;99.90;;;;;;5065795;28;20055;-75
2023/04/13 07:50:40;;;;;;;10.05;3.60;;;7.70;99.90;;;;;;5063197;28;20036;-75
2023/04/13 07:53:06;;;;;;;12.55;3.25;;;7.90;99.90;;;;;;5060035;28;20056;-76
2023/04/13 07:55:32;;;;;;;12.18;3.65;;;8.20;99.90;;;;;;5070792;28;20041;-76
2023/04/13 07:57:58;;;;;;;11.15;3.15;;;8.40;99.90;;;;;;5051730;28;20041;-76
2023/04/13 08:00:24;;;;;;;9.73;2.65;;;8.60;99.90;;;;;;5057265;28;20045;-76
2023/04/13 08:02:52;;;;;;;9.68;2.70;;;8.80;99.90;;;;;;5051039;28;20037;-76
2023/04/13 08:05:18;;;;;;;8.18;2.50;;;9.10;99.90;;;;;;5053314;28;20473;-76
2023/04/13 08:07:45;;;;;;;12.00;2.63;;;9.30;99.90;;;;;;5057257;28;20172;-76
2023/04/13 08:10:11;;;;;;;8.05;2.30;;;9.40;99.90;;;;;;5059594;28;20097;-76
2023/04/13 08:12:37;;;;;;;10.48;2.55;;;9.60;99.90;;;;;;5069663;28;20486;-76
2023/04/13 08:15:03;;;;;;;12.48;2.90;;;9.80;99.90;;;;;;5051604;28;20037;-76
2023/04/13 08:17:29;;;;;;;8.85;2.33;;;9.80;99.90;;;;;;5062506;28;20089;-76
2023/04/13 08:19:54;;;;;;;8.07;2.28;;;9.70;99.90;;;;;;5061675;28;20036;-75
2023/04/13 08:22:20;;;;;;;10.63;2.42;;;9.60;99.90;;;;;;5046229;28;20036;-76
2023/04/13 08:24:46;;;;;;;7.72;2.13;;;9.40;99.90;;;;;;5047725;28;20075;-76
2023/04/13 08:27:12;;;;;;;6.88;2.15;;;9.30;99.90;;;;;;5047229;28;20076;-76
2023/04/13 08:29:37;;;;;;;8.15;2.47;;;9.10;99.90;;;;;;5044176;28;20044;-76
2023/04/13 08:32:03;;;;;;;7.38;1.90;;;8.90;99.90;;;;;;5061303;28;20033;-76
2023/04/13 08:34:29;;;;;;;9.63;1.77;;;8.80;99.90;;;;;;5046642;28;20035;-76
2023/04/13 08:36:56;;;;;;;7.40;1.80;;;8.80;99.90;;;;;;5029234;28;20040;-76
2023/04/13 08:39:22;;;;;;;9.23;1.90;;;8.70;99.90;;;;;;5027644;28;20049;-76
2023/04/13 08:41:48;;;;;;;7.68;2.00;;;8.70;99.90;;;;;;5049122;28;20036;-76
2023/04/13 08:44:14;;;;;;;7.55;2.50;;;8.70;99.90;;;;;;5062602;28;20521;-76
2023/04/13 08:46:42;;;;;;;6.75;2.10;;;8.80;99.90;;;;;;5063987;28;20064;-76
2023/04/13 08:49:10;;;;;;;9.45;2.50;;;8.90;99.90;;;;;;5044319;28;20102;-77
2023/04/13 08:51:36;;;;;;;7.80;2.28;;;8.90;99.90;;;;;;5039372;28;20036;-76
2023/04/13 08:54:02;;;;;;;9.18;2.30;;;9.00;99.90;;;;;;5058699;28;20033;-76
2023/04/13 08:56:29;;;;;;;7.07;2.15;;;9.00;99.90;;;;;;5051021;28;20181;-76
2023/04/13 08:59:06;;;;;;;7.65;2.20;;;9.10;99.90;;;;;;5032809;28;20063;-76
2023/04/13 09:01:38;;;;;;;9.38;2.20;;;9.20;99.90;;;;;;5047806;28;20044;-77
2023/04/13 09:04:09;;;;;;;6.95;1.98;;;9.30;99.90;;;;;;5062242;28;20048;-77
2023/04/13 09:06:42;;;;;;;7.65;2.20;;;9.50;99.90;;;;;;5059755;28;20047;-77
2023/04/13 09:09:15;;;;;;;5.50;2.00;;;9.60;99.90;;;;;;5068707;28;20529;-76
2023/04/13 09:11:42;;;;;;;5.45;1.88;;;9.70;99.90;;;;;;5067081;28;20048;-77
2023/04/13 09:14:08;;;;;;;6.35;1.92;;;9.80;99.90;;;;;;5019388;28;20083;-76
2023/04/13 09:16:41;;;;;;;5.47;1.60;;;9.80;99.90;;;;;;5067099;28;20445;-76
2023/04/13 09:19:08;;;;;;;6.18;1.70;;;9.70;99.90;;;;;;5068745;28;20462;-76
2023/04/13 09:21:41;;;;;;;3.75;1.30;;;9.60;99.90;;;;;;5052135;28;20040;-76
2023/04/13 09:24:08;;;;;;;6.40;1.77;;;9.50;99.90;;;;;;5030486;28;20120;-76
2023/04/13 09:26:45;;;;;;;7.03;1.70;;;9.30;99.90;;;;;;5051637;28;20044;-76
2023/04/13 09:29:16;;;;;;;6.40;1.60;;;9.20;99.90;;;;;;5049835;28;20052;-76
2023/04/13 09:31:42;;;;;;;6.28;1.67;;;9.20;99.90;;;;;;5056182;28;20068;-76
2023/04/13 09:34:09;;;;;;;8.27;2.00;;;9.10;99.90;;;;;;5048637;28;20048;-76
2023/04/13 09:36:35;;;;;;;4.93;1.80;;;9.10;99.90;;;;;;5022317;28;20068;-76
2023/04/13 09:39:02;;;;;;;7.43;1.92;;;9.20;99.90;;;;;;5074195;28;20061;-76
2023/04/13 09:41:31;;;;;;;7.22;1.85;;;9.50;99.90;;;;;;5047034;28;20040;-76
2023/04/13 09:43:58;;;;;;;6.88;2.00;;;9.60;99.90;;;;;;5033866;28;20094;-76
2023/04/13 09:46:24;;;;;;;6.22;1.95;;;9.70;99.90;;;;;;5048560;28;20517;-76
2023/04/13 09:49:01;;;;;;;6.05;1.88;;;9.70;99.90;;;;;;5048559;28;20429;-76
2023/04/13 09:51:38;;;;;;;5.53;1.67;;;9.50;99.90;;;;;;5061733;28;20040;-77
2023/04/13 09:54:05;;;;;;;5.13;1.60;;;9.40;99.90;;;;;;5068274;28;20032;-76
2023/04/13 09:56:51;;;;;;;6.40;1.50;;;9.30;99.90;;;;;;5068247;28;20097;-76
2023/04/13 09:59:18;;;;;;;3.78;1.20;;;9.10;99.90;;;;;;5068750;28;20052;-76
2023/04/13 10:01:44;;;;;;;3.78;1.30;;;9.00;99.90;;;;;;5049975;28;20048;-76
2023/04/13 10:04:11;;;;;;;4.78;1.30;;;8.70;99.90;;;;;;5054974;28;20186;-75
2023/04/13 10:06:42;;;;;;;2.25;0.80;;;8.60;99.90;;;;;;5058786;28;20047;-75
2023/04/13 10:09:09;;;;;;;6.03;1.30;;;8.50;99.90;;;;;;5051439;28;20171;-76
2023/04/13 10:11:44;;;;;;;4.50;1.02;;;8.50;99.90;;;;;;5050352;28;20040;-75
2023/04/13 10:14:27;;;;;;;2.33;0.90;;;8.40;99.90;;;;;;5055171;28;20519;-76
2023/04/13 10:17:31;;;;;;;3.80;1.00;;;8.30;99.90;;;;;;5062173;28;20222;-76
2023/04/13 10:20:06;;;;;;;3.20;0.95;;;8.30;99.90;;;;;;5060896;28;20174;-75
2023/04/13 10:22:33;;;;;;;2.33;0.80;;;8.30;99.90;;;;;;5055411;28;20060;-75
2023/04/13 10:24:59;;;;;;;3.00;0.95;;;8.40;99.90;;;;;;5020824;28;20522;-76
2023/04/13 10:27:27;;;;;;;3.53;1.33;;;8.60;99.90;;;;;;5031333;28;20683;-76
2023/04/13 10:29:53;;;;;;;2.70;1.10;;;8.70;99.90;;;;;;5047755;28;20041;-76
2023/04/13 10:32:24;;;;;;;2.55;0.90;;;8.90;99.90;;;;;;5045340;28;20121;-76
2023/04/13 10:34:50;;;;;;;6.97;1.20;;;9.00;99.90;;;;;;5037669;28;20052;-76
2023/04/13 10:37:27;;;;;;;3.25;1.13;;;9.20;99.90;;;;;;5030836;28;20057;-76
2023/04/13 10:40:12;;;;;;;4.32;1.27;;;9.30;99.90;;;;;;5033067;28;20126;-76
2023/04/13 10:42:46;;;;;;;4.57;1.50;;;9.60;99.90;;;;;;5064238;28;20331;-76
2023/04/13 10:45:16;;;;;;;4.38;1.20;;;9.80;99.90;;;;;;5037547;28;20056;-76
2023/04/13 10:47:42;;;;;;;3.63;1.17;;;9.80;99.90;;;;;;5040138;28;20119;-76
2023/04/13 10:50:16;;;;;;;4.93;1.27;;;9.80;99.90;;;;;;5054845;28;20532;-76
2023/04/13 10:52:56;;;;;;;4.97;1.45;;;9.90;99.90;;;;;;5060661;28;20048;-76
2023/04/13 10:55:26;;;;;;;3.85;1.20;;;10.00;99.90;;;;;;5070332;28;20402;-76
2023/04/13 10:57:56;;;;;;;5.30;1.40;;;10.20;99.90;;;;;;5070691;28;20044;-77
2023/04/13 11:00:24;;;;;;;2.10;0.73;;;10.30;99.90;;;;;;5071481;28;20051;-76
2023/04/13 11:02:53;;;;;;;3.00;1.10;;;10.40;99.90;;;;;;5069923;28;20393;-76
2023/04/13 11:05:20;;;;;;;2.67;0.90;;;10.50;99.90;;;;;;5054865;28;20130;-76
2023/04/13 11:07:47;;;;;;;4.25;1.20;;;10.80;99.90;;;;;;5054256;28;20041;-76
2023/04/13 11:10:13;;;;;;;4.30;1.10;;;10.90;99.90;;;;;;5070129;28;20053;-76
2023/04/13 11:12:48;;;;;;;5.90;1.50;;;11.20;99.90;;;;;;5070294;28;20083;-76
2023/04/13 11:15:19;;;;;;;6.82;1.65;;;11.30;99.90;;;;;;5061478;28;20043;-76
2023/04/13 11:17:59;;;;;;;6.40;1.50;;;11.30;99.90;;;;;;5042359;28;20044;-76
2023/04/13 11:20:36;;;;;;;5.00;1.60;;;11.20;99.90;;;;;;5057511;28;20044;-76
2023/04/13 11:23:05;;;;;;;6.43;1.60;;;11.00;99.90;;;;;;5036233;28;20115;-76
2023/04/13 11:25:34;;;;;;;4.55;1.30;;;10.80;99.90;;;;;;5069821;28;20115;-76
2023/04/13 11:28:02;;;;;;;5.68;1.30;;;10.70;99.90;;;;;;5071287;28;20080;-76
2023/04/13 11:30:30;;;;;;;5.65;1.40;;;10.60;99.90;;;;;;5070796;28;20105;-76
2023/04/13 11:32:58;;;;;;;6.28;1.70;;;10.50;99.90;;;;;;5070878;28;20046;-76
2023/04/13 11:35:25;;;;;;;7.57;1.85;;;10.40;99.90;;;;;;5036701;28;20044;-76
2023/04/13 11:37:53;;;;;;;10.07;1.80;;;10.40;99.90;;;;;;5070469;28;20049;-76
2023/04/13 11:40:26;;;;;;;8.73;1.77;;;10.40;99.90;;;;;;5070744;28;20560;-76
2023/04/13 11:42:53;;;;;;;10.25;2.13;;;10.40;99.90;;;;;;5070757;28;20036;-76
2023/04/13 11:45:21;;;;;;;11.10;2.28;;;10.30;99.90;;;;;;5070553;28;20059;-76
2023/04/13 11:47:49;;;;;;;9.48;2.22;;;10.40;99.90;;;;;;5070420;28;20055;-76
2023/04/13 11:50:16;;;;;;;11.73;2.30;;;10.50;99.90;;;;;;5071923;28;20040;-76
2023/04/13 11:52:44;;;;;;;11.45;2.50;;;10.70;99.90;;;;;;5069549;28;20045;-76
2023/04/13 11:55:10;;;;;;;11.13;2.42;;;10.80;99.90;;;;;;5056671;28;20075;-76
2023/04/13 11:57:36;;;;;;;11.48;2.40;;;10.70;99.90;;;;;;5039906;28;20545;-75
2023/04/13 12:00:12;;;;;;;15.88;2.65;;;10.70;99.90;;;;;;5033584;28;20172;-76
2023/04/13 12:02:42;;;;;;;10.25;2.78;;;10.60;99.90;;;;;;5050188;28;20131;-76
2023/04/13 12:05:29;;;;;;;10.82;2.60;;;10.60;99.90;;;;;;5049988;28;20048;-76
2023/04/13 12:07:56;;;;;;;11.55;2.30;;;10.70;99.90;;;;;;5068459;28;20105;-76
2023/04/13 12:10:27;;;;;;;11.98;2.83;;;11.00;99.90;;;;;;5069667;28;20036;-76
2023/04/13 12:12:59;;;;;;;11.20;2.58;;;11.20;99.90;;;;;;5052511;28;20037;-76
2023/04/13 12:15:30;;;;;;;11.68;2.40;;;11.30;99.90;;;;;;5049854;28;20033;-76
2023/04/13 12:17:57;;;;;;;12.57;3.05;;;11.30;99.90;;;;;;5064104;28;20036;-76
2023/04/13 12:20:24;;;;;;;14.23;2.72;;;11.30;99.90;;;;;;5052355;28;20175;-76
2023/04/13 12:22:50;;;;;;;12.27;2.55;;;11.20;99.90;;;;;;5055462;28;20040;-76
2023/04/13 12:25:19;;;;;;;11.60;2.72;;;11.20;99.90;;;;;;5049946;28;20049;-76
2023/04/13 12:27:44;;;;;;;11.15;2.22;;;11.10;99.90;;;;;;5057243;28;20036;-76
2023/04/13 12:30:14;;;;;;;11.27;2.30;;;11.10;99.90;;;;;;5069689;28;20413;-76
2023/04/13 12:32:45;;;;;;;10.30;2.20;;;11.10;99.90;;;;;;5067934;28;20036;-76
2023/04/13 12:35:12;;;;;;;12.70;2.83;;;11.10;99.90;;;;;;5067666;28;20490;-76
2023/04/13 12:37:42;;;;;;;9.20;2.30;;;11.10;99.90;;;;;;5062329;28;20146;-76
2023/04/13 12:40:14;;;;;;;12.07;2.63;;;11.10;99.90;;;;;;5060557;28;20102;-76
2023/04/13 12:42:47;;;;;;;10.85;2.10;;;11.00;99.90;;;;;;5060272;28;20114;-76
2023/04/13 12:45:13;;;;;;;;;;;11.00;99.90;;;;;;5070082;28;20125;-76
2023/04/13 12:47:40;;;;;;;11.63;2.60;;;10.90;99.90;;;;;;5050617;28;20007;-76
2023/04/13 12:50:08;;;;;;;9.43;2.15;;;10.80;99.90;;;;;;5025005;28;20110;-76
2023/04/13 12:52:37;;;;;;;11.75;2.22;;;10.80;99.90;;;;;;5052892;28;20115;-76
2023/04/13 12:55:02;;;;;;;11.85;2.10;;;10.70;99.90;;;;;;5065259;28;20037;-76
2023/04/13 12:57:29;;;;;;;9.88;2.25;;;10.60;99.90;;;;;;5068797;28;20040;-76